sensor_id;sensor_type;location;lat;lon;timestamp;P1;durP1;ratioP1;P2;durP2;ratioP2
69795;SDS011;57073;45.650;9.612;2022-12-29T00:01:53;84.07;;;35.87;;
69795;SDS011;57073;45.650;9.612;2022-12-29T00:11:55;93.63;;;36.08;;
69795;SDS011;57073;45.650;9.612;2022-12-29T00:21:55;90.73;;;36.47;;
69795;SDS011;57073;45.650;9.612;2022-12-29T00:32:15;82.00;;;34.28;;
69795;SDS011;57073;45.650;9.612;2022-12-29T00:42:33;89.37;;;34.83;;
69795;SDS011;57073;45.650;9.612;2022-12-29T00:52:52;89.93;;;35.17;;
69795;SDS011;57073;45.650;9.612;2022-12-29T01:02:53;87.65;;;35.63;;
69795;SDS011;57073;45.650;9.612;2022-12-29T01:12:53;82.65;;;35.25;;
69795;SDS011;57073;45.650;9.612;2022-12-29T01:22:54;85.00;;;34.87;;
69795;SDS011;57073;45.650;9.612;2022-12-29T01:32:54;89.30;;;37.40;;
69795;SDS011;57073;45.650;9.612;2022-12-29T01:42:54;84.45;;;35.05;;
69795;SDS011;57073;45.650;9.612;2022-12-29T01:52:56;80.32;;;33.78;;
69795;SDS011;57073;45.650;9.612;2022-12-29T02:03:01;86.47;;;34.97;;
69795;SDS011;57073;45.650;9.612;2022-12-29T02:13:02;87.07;;;34.83;;
69795;SDS011;57073;45.650;9.612;2022-12-29T02:54:07;79.75;;;31.98;;
69795;SDS011;57073;45.650;9.612;2022-12-29T03:04:31;75.20;;;31.97;;
69795;SDS011;57073;45.650;9.612;2022-12-29T03:35:26;70.10;;;29.93;;
69795;SDS011;57073;45.650;9.612;2022-12-29T03:45:29;74.97;;;31.33;;
69795;SDS011;57073;45.650;9.612;2022-12-29T03:55:30;69.00;;;30.08;;
69795;SDS011;57073;45.650;9.612;2022-12-29T04:05:30;71.15;;;30.75;;
69795;SDS011;57073;45.650;9.612;2022-12-29T04:15:31;70.25;;;30.08;;
69795;SDS011;57073;45.650;9.612;2022-12-29T04:25:32;67.37;;;29.93;;
69795;SDS011;57073;45.650;9.612;2022-12-29T04:35:32;67.90;;;30.92;;
69795;SDS011;57073;45.650;9.612;2022-12-29T04:45:33;66.67;;;30.03;;
69795;SDS011;57073;45.650;9.612;2022-12-29T04:55:33;75.43;;;31.30;;
69795;SDS011;57073;45.650;9.612;2022-12-29T05:05:34;75.67;;;32.17;;
69795;SDS011;57073;45.650;9.612;2022-12-29T05:15:34;84.70;;;33.92;;
69795;SDS011;57073;45.650;9.612;2022-12-29T05:25:34;80.47;;;32.17;;
69795;SDS011;57073;45.650;9.612;2022-12-29T05:35:35;79.80;;;31.42;;
69795;SDS011;57073;45.650;9.612;2022-12-29T05:45:35;80.15;;;32.83;;
69795;SDS011;57073;45.650;9.612;2022-12-29T05:55:36;86.53;;;34.03;;
69795;SDS011;57073;45.650;9.612;2022-12-29T06:05:36;75.43;;;31.48;;
69795;SDS011;57073;45.650;9.612;2022-12-29T06:15:37;80.88;;;32.70;;
69795;SDS011;57073;45.650;9.612;2022-12-29T06:25:38;77.80;;;32.53;;
69795;SDS011;57073;45.650;9.612;2022-12-29T06:35:39;75.83;;;33.40;;
69795;SDS011;57073;45.650;9.612;2022-12-29T06:45:41;70.63;;;31.20;;
69795;SDS011;57073;45.650;9.612;2022-12-29T06:55:42;79.55;;;33.35;;
69795;SDS011;57073;45.650;9.612;2022-12-29T07:05:42;79.10;;;33.77;;
69795;SDS011;57073;45.650;9.612;2022-12-29T07:15:43;82.72;;;34.65;;
69795;SDS011;57073;45.650;9.612;2022-12-29T07:25:43;72.07;;;32.15;;
69795;SDS011;57073;45.650;9.612;2022-12-29T07:35:43;80.00;;;31.87;;
69795;SDS011;57073;45.650;9.612;2022-12-29T07:45:44;88.47;;;33.80;;
69795;SDS011;57073;45.650;9.612;2022-12-29T07:55:44;82.95;;;34.55;;
69795;SDS011;57073;45.650;9.612;2022-12-29T08:05:44;77.15;;;34.70;;
69795;SDS011;57073;45.650;9.612;2022-12-29T08:15:45;64.70;;;29.08;;
69795;SDS011;57073;45.650;9.612;2022-12-29T08:25:45;67.00;;;29.27;;
69795;SDS011;57073;45.650;9.612;2022-12-29T08:35:46;56.10;;;25.90;;
69795;SDS011;57073;45.650;9.612;2022-12-29T08:45:46;63.72;;;29.23;;
69795;SDS011;57073;45.650;9.612;2022-12-29T08:55:47;67.75;;;29.75;;
69795;SDS011;57073;45.650;9.612;2022-12-29T09:05:54;74.17;;;30.40;;
69795;SDS011;57073;45.650;9.612;2022-12-29T09:15:58;83.23;;;35.33;;
69795;SDS011;57073;45.650;9.612;2022-12-29T09:25:59;85.80;;;35.00;;
69795;SDS011;57073;45.650;9.612;2022-12-29T09:36:00;89.33;;;34.97;;
69795;SDS011;57073;45.650;9.612;2022-12-29T09:46:11;86.25;;;35.53;;
69795;SDS011;57073;45.650;9.612;2022-12-29T09:56:24;86.97;;;36.07;;
69795;SDS011;57073;45.650;9.612;2022-12-29T10:06:35;75.40;;;35.23;;
69795;SDS011;57073;45.650;9.612;2022-12-29T10:27:07;78.37;;;35.20;;
69795;SDS011;57073;45.650;9.612;2022-12-29T10:37:24;81.40;;;35.77;;
69795;SDS011;57073;45.650;9.612;2022-12-29T10:47:38;86.05;;;35.22;;
69795;SDS011;57073;45.650;9.612;2022-12-29T10:57:45;84.53;;;35.43;;
69795;SDS011;57073;45.650;9.612;2022-12-29T11:07:47;82.67;;;34.77;;
69795;SDS011;57073;45.650;9.612;2022-12-29T11:17:51;87.43;;;36.45;;
69795;SDS011;57073;45.650;9.612;2022-12-29T11:28:03;88.80;;;35.63;;
69795;SDS011;57073;45.650;9.612;2022-12-29T11:38:20;83.87;;;35.80;;
69795;SDS011;57073;45.650;9.612;2022-12-29T11:48:26;84.93;;;36.60;;
69795;SDS011;57073;45.650;9.612;2022-12-29T11:58:33;85.90;;;36.23;;
69795;SDS011;57073;45.650;9.612;2022-12-29T12:18:57;83.75;;;34.33;;
69795;SDS011;57073;45.650;9.612;2022-12-29T12:29:05;76.07;;;32.60;;
69795;SDS011;57073;45.650;9.612;2022-12-29T13:10:02;65.17;;;31.67;;
69795;SDS011;57073;45.650;9.612;2022-12-29T13:30:38;67.30;;;31.58;;
69795;SDS011;57073;45.650;9.612;2022-12-29T13:40:45;62.80;;;29.97;;
69795;SDS011;57073;45.650;9.612;2022-12-29T13:50:54;70.37;;;31.47;;
69795;SDS011;57073;45.650;9.612;2022-12-29T14:01:00;71.07;;;32.33;;
69795;SDS011;57073;45.650;9.612;2022-12-29T14:11:11;65.80;;;30.87;;
69795;SDS011;57073;45.650;9.612;2022-12-29T14:41:15;76.40;;;32.17;;
69795;SDS011;57073;45.650;9.612;2022-12-29T14:51:32;80.03;;;35.17;;
69795;SDS011;57073;45.650;9.612;2022-12-29T15:01:39;84.90;;;36.07;;
69795;SDS011;57073;45.650;9.612;2022-12-29T15:11:47;87.97;;;36.83;;
69795;SDS011;57073;45.650;9.612;2022-12-29T15:21:50;88.30;;;39.40;;
69795;SDS011;57073;45.650;9.612;2022-12-29T15:31:53;84.00;;;33.17;;
69795;SDS011;57073;45.650;9.612;2022-12-29T15:41:55;83.32;;;35.92;;
69795;SDS011;57073;45.650;9.612;2022-12-29T15:51:59;89.53;;;36.07;;
69795;SDS011;57073;45.650;9.612;2022-12-29T16:02:00;89.85;;;35.38;;
69795;SDS011;57073;45.650;9.612;2022-12-29T16:12:06;85.03;;;36.80;;
69795;SDS011;57073;45.650;9.612;2022-12-29T16:22:17;86.93;;;37.35;;
69795;SDS011;57073;45.650;9.612;2022-12-29T16:32:28;87.30;;;38.57;;
69795;SDS011;57073;45.650;9.612;2022-12-29T16:52:36;89.85;;;39.42;;
69795;SDS011;57073;45.650;9.612;2022-12-29T17:02:36;98.03;;;42.87;;
69795;SDS011;57073;45.650;9.612;2022-12-29T17:12:45;96.47;;;40.33;;
69795;SDS011;57073;45.650;9.612;2022-12-29T17:22:48;102.40;;;41.53;;
69795;SDS011;57073;45.650;9.612;2022-12-29T17:32:55;103.97;;;42.63;;
69795;SDS011;57073;45.650;9.612;2022-12-29T17:42:58;92.20;;;40.30;;
69795;SDS011;57073;45.650;9.612;2022-12-29T17:53:01;97.85;;;39.88;;
69795;SDS011;57073;45.650;9.612;2022-12-29T18:03:03;94.73;;;39.20;;
69795;SDS011;57073;45.650;9.612;2022-12-29T18:13:04;88.32;;;37.22;;
69795;SDS011;57073;45.650;9.612;2022-12-29T18:23:04;76.00;;;32.70;;
69795;SDS011;57073;45.650;9.612;2022-12-29T18:33:08;78.40;;;31.93;;
69795;SDS011;57073;45.650;9.612;2022-12-29T18:43:13;83.53;;;36.10;;
69795;SDS011;57073;45.650;9.612;2022-12-29T18:53:19;80.10;;;33.35;;
69795;SDS011;57073;45.650;9.612;2022-12-29T19:03:21;75.07;;;31.73;;
69795;SDS011;57073;45.650;9.612;2022-12-29T19:13:21;80.90;;;32.08;;
69795;SDS011;57073;45.650;9.612;2022-12-29T19:23:27;80.70;;;33.30;;
69795;SDS011;57073;45.650;9.612;2022-12-29T19:33:28;72.75;;;30.30;;
69795;SDS011;57073;45.650;9.612;2022-12-29T19:43:28;69.67;;;28.40;;
69795;SDS011;57073;45.650;9.612;2022-12-29T19:53:28;70.53;;;29.08;;
69795;SDS011;57073;45.650;9.612;2022-12-29T20:03:29;65.10;;;27.98;;
69795;SDS011;57073;45.650;9.612;2022-12-29T20:13:30;106.63;;;42.83;;
69795;SDS011;57073;45.650;9.612;2022-12-29T20:23:32;79.28;;;31.52;;
69795;SDS011;57073;45.650;9.612;2022-12-29T20:33:34;86.53;;;33.43;;
69795;SDS011;57073;45.650;9.612;2022-12-29T20:43:35;78.57;;;31.53;;
69795;SDS011;57073;45.650;9.612;2022-12-29T20:53:36;68.90;;;28.70;;
69795;SDS011;57073;45.650;9.612;2022-12-29T21:03:37;70.05;;;28.98;;
69795;SDS011;57073;45.650;9.612;2022-12-29T21:13:38;67.37;;;28.90;;
69795;SDS011;57073;45.650;9.612;2022-12-29T21:23:39;63.47;;;27.05;;
69795;SDS011;57073;45.650;9.612;2022-12-29T21:33:40;67.23;;;27.23;;
69795;SDS011;57073;45.650;9.612;2022-12-29T21:43:40;72.38;;;28.17;;
69795;SDS011;57073;45.650;9.612;2022-12-29T21:53:42;83.00;;;31.13;;
69795;SDS011;57073;45.650;9.612;2022-12-29T22:03:43;77.38;;;28.23;;
69795;SDS011;57073;45.650;9.612;2022-12-29T22:14:02;67.87;;;25.87;;
69795;SDS011;57073;45.650;9.612;2022-12-29T22:24:03;62.83;;;24.80;;
69795;SDS011;57073;45.650;9.612;2022-12-29T22:34:03;60.87;;;25.60;;
69795;SDS011;57073;45.650;9.612;2022-12-29T22:44:04;52.08;;;22.75;;
69795;SDS011;57073;45.650;9.612;2022-12-29T22:54:04;42.80;;;19.00;;
69795;SDS011;57073;45.650;9.612;2022-12-29T23:04:05;38.53;;;19.43;;
69795;SDS011;57073;45.650;9.612;2022-12-29T23:14:06;37.03;;;18.83;;
69795;SDS011;57073;45.650;9.612;2022-12-29T23:24:09;39.15;;;19.85;;
69795;SDS011;57073;45.650;9.612;2022-12-29T23:34:12;35.77;;;18.80;;
69795;SDS011;57073;45.650;9.612;2022-12-29T23:44:14;51.43;;;26.63;;
69795;SDS011;57073;45.650;9.612;2022-12-29T23:54:14;30.67;;;17.85;;
